sensor_id;sensor_type;location;lat;lon;timestamp;P1;durP1;ratioP1;P2;durP2;ratioP2
14048;SDS011;7099;53.922;10.728;2023-06-22T01:51:08;4.27;;;2.80;;
14048;SDS011;7099;53.922;10.728;2023-06-22T01:55:13;3.65;;;3.10;;
14048;SDS011;7099;53.922;10.728;2023-06-22T01:59:25;5.72;;;3.30;;
14048;SDS011;7099;53.922;10.728;2023-06-22T02:03:41;5.45;;;3.40;;
14048;SDS011;7099;53.922;10.728;2023-06-22T02:08:00;4.97;;;3.40;;
14048;SDS011;7099;53.922;10.728;2023-06-22T02:12:16;5.53;;;3.42;;
14048;SDS011;7099;53.922;10.728;2023-06-22T02:16:25;5.67;;;3.37;;
14048;SDS011;7099;53.922;10.728;2023-06-22T02:20:38;5.23;;;3.70;;
14048;SDS011;7099;53.922;10.728;2023-06-22T02:24:44;6.93;;;4.05;;
14048;SDS011;7099;53.922;10.728;2023-06-22T02:28:49;4.40;;;3.50;;
14048;SDS011;7099;53.922;10.728;2023-06-22T02:32:55;4.87;;;3.47;;
14048;SDS011;7099;53.922;10.728;2023-06-22T02:37:03;6.60;;;3.50;;
14048;SDS011;7099;53.922;10.728;2023-06-22T02:41:09;4.78;;;3.75;;
14048;SDS011;7099;53.922;10.728;2023-06-22T02:45:17;4.00;;;3.60;;
14048;SDS011;7099;53.922;10.728;2023-06-22T02:49:23;4.75;;;3.80;;
14048;SDS011;7099;53.922;10.728;2023-06-22T02:53:29;4.25;;;3.85;;
14048;SDS011;7099;53.922;10.728;2023-06-22T02:57:35;6.40;;;3.60;;
14048;SDS011;7099;53.922;10.728;2023-06-22T03:01:40;6.90;;;3.60;;
14048;SDS011;7099;53.922;10.728;2023-06-22T03:05:46;5.32;;;3.30;;
14048;SDS011;7099;53.922;10.728;2023-06-22T03:09:51;4.00;;;3.33;;
14048;SDS011;7099;53.922;10.728;2023-06-22T03:13:57;4.80;;;3.78;;
14048;SDS011;7099;53.922;10.728;2023-06-22T03:18:04;5.25;;;3.55;;
14048;SDS011;7099;53.922;10.728;2023-06-22T03:22:09;5.00;;;3.80;;
14048;SDS011;7099;53.922;10.728;2023-06-22T03:26:18;4.40;;;3.70;;
14048;SDS011;7099;53.922;10.728;2023-06-22T03:30:24;4.93;;;3.92;;
14048;SDS011;7099;53.922;10.728;2023-06-22T03:34:29;6.83;;;4.00;;
14048;SDS011;7099;53.922;10.728;2023-06-22T03:38:38;6.23;;;3.70;;
14048;SDS011;7099;53.922;10.728;2023-06-22T03:42:46;4.00;;;3.50;;
14048;SDS011;7099;53.922;10.728;2023-06-22T03:46:52;4.32;;;3.63;;
14048;SDS011;7099;53.922;10.728;2023-06-22T03:50:59;4.32;;;3.58;;
14048;SDS011;7099;53.922;10.728;2023-06-22T03:55:07;4.55;;;3.40;;
14048;SDS011;7099;53.922;10.728;2023-06-22T03:59:12;3.97;;;3.55;;
14048;SDS011;7099;53.922;10.728;2023-06-22T04:03:18;4.50;;;3.53;;
14048;SDS011;7099;53.922;10.728;2023-06-22T04:07:24;4.50;;;3.40;;
14048;SDS011;7099;53.922;10.728;2023-06-22T04:11:30;8.65;;;4.10;;
14048;SDS011;7099;53.922;10.728;2023-06-22T04:15:35;5.70;;;4.10;;
14048;SDS011;7099;53.922;10.728;2023-06-22T04:19:41;6.03;;;4.40;;
14048;SDS011;7099;53.922;10.728;2023-06-22T04:23:46;7.00;;;3.92;;
14048;SDS011;7099;53.922;10.728;2023-06-22T04:27:52;8.60;;;4.32;;
14048;SDS011;7099;53.922;10.728;2023-06-22T04:31:58;5.50;;;4.20;;
14048;SDS011;7099;53.922;10.728;2023-06-22T04:36:07;5.90;;;4.40;;
14048;SDS011;7099;53.922;10.728;2023-06-22T04:40:13;6.83;;;4.00;;
14048;SDS011;7099;53.922;10.728;2023-06-22T04:44:19;5.00;;;4.20;;
14048;SDS011;7099;53.922;10.728;2023-06-22T04:48:30;6.50;;;4.50;;
14048;SDS011;7099;53.922;10.728;2023-06-22T04:52:37;7.80;;;4.40;;
14048;SDS011;7099;53.922;10.728;2023-06-22T04:56:43;4.90;;;4.40;;
14048;SDS011;7099;53.922;10.728;2023-06-22T05:00:51;5.27;;;4.77;;
14048;SDS011;7099;53.922;10.728;2023-06-22T05:04:56;7.90;;;4.80;;
14048;SDS011;7099;53.922;10.728;2023-06-22T05:09:02;5.95;;;4.40;;
14048;SDS011;7099;53.922;10.728;2023-06-22T05:13:08;7.07;;;4.70;;
14048;SDS011;7099;53.922;10.728;2023-06-22T05:17:13;7.63;;;4.60;;
14048;SDS011;7099;53.922;10.728;2023-06-22T05:21:23;6.10;;;4.10;;
14048;SDS011;7099;53.922;10.728;2023-06-22T05:25:31;7.30;;;4.30;;
14048;SDS011;7099;53.922;10.728;2023-06-22T05:29:37;6.33;;;4.47;;
14048;SDS011;7099;53.922;10.728;2023-06-22T05:33:44;8.13;;;4.53;;
14048;SDS011;7099;53.922;10.728;2023-06-22T05:37:49;9.50;;;5.10;;
14048;SDS011;7099;53.922;10.728;2023-06-22T05:41:56;5.30;;;4.03;;
14048;SDS011;7099;53.922;10.728;2023-06-22T05:46:01;8.80;;;4.20;;
14048;SDS011;7099;53.922;10.728;2023-06-22T05:50:09;5.60;;;3.57;;
14048;SDS011;7099;53.922;10.728;2023-06-22T05:54:32;5.93;;;3.97;;
14048;SDS011;7099;53.922;10.728;2023-06-22T05:58:38;4.47;;;3.80;;
14048;SDS011;7099;53.922;10.728;2023-06-22T06:02:43;7.50;;;3.60;;
14048;SDS011;7099;53.922;10.728;2023-06-22T06:06:49;4.40;;;3.20;;
14048;SDS011;7099;53.922;10.728;2023-06-22T06:10:54;4.40;;;3.47;;
14048;SDS011;7099;53.922;10.728;2023-06-22T06:15:02;4.93;;;3.03;;
14048;SDS011;7099;53.922;10.728;2023-06-22T06:19:08;4.90;;;3.00;;
14048;SDS011;7099;53.922;10.728;2023-06-22T06:23:14;5.00;;;2.90;;
14048;SDS011;7099;53.922;10.728;2023-06-22T06:27:19;5.93;;;3.40;;
14048;SDS011;7099;53.922;10.728;2023-06-22T06:31:25;3.63;;;2.90;;
14048;SDS011;7099;53.922;10.728;2023-06-22T06:35:33;12.67;;;3.10;;
14048;SDS011;7099;53.922;10.728;2023-06-22T06:39:39;4.17;;;3.10;;
14048;SDS011;7099;53.922;10.728;2023-06-22T06:43:47;5.83;;;3.20;;
14048;SDS011;7099;53.922;10.728;2023-06-22T06:47:53;3.60;;;2.67;;
14048;SDS011;7099;53.922;10.728;2023-06-22T06:51:58;5.50;;;2.77;;
14048;SDS011;7099;53.922;10.728;2023-06-22T06:56:04;5.20;;;2.57;;
14048;SDS011;7099;53.922;10.728;2023-06-22T07:00:12;4.63;;;2.77;;
14048;SDS011;7099;53.922;10.728;2023-06-22T07:04:19;4.87;;;2.70;;
14048;SDS011;7099;53.922;10.728;2023-06-22T07:08:24;4.47;;;2.77;;
14048;SDS011;7099;53.922;10.728;2023-06-22T07:12:30;5.40;;;2.80;;
14048;SDS011;7099;53.922;10.728;2023-06-22T07:16:35;4.40;;;2.97;;
14048;SDS011;7099;53.922;10.728;2023-06-22T07:20:41;5.07;;;2.50;;
14048;SDS011;7099;53.922;10.728;2023-06-22T07:24:46;7.23;;;3.10;;
14048;SDS011;7099;53.922;10.728;2023-06-22T07:28:52;22.40;;;3.27;;
14048;SDS011;7099;53.922;10.728;2023-06-22T07:32:57;8.20;;;2.90;;
14048;SDS011;7099;53.922;10.728;2023-06-22T07:37:08;10.10;;;2.93;;
14048;SDS011;7099;53.922;10.728;2023-06-22T07:41:14;8.07;;;3.73;;
14048;SDS011;7099;53.922;10.728;2023-06-22T07:45:19;15.00;;;2.90;;
14048;SDS011;7099;53.922;10.728;2023-06-22T07:49:25;9.00;;;3.10;;
14048;SDS011;7099;53.922;10.728;2023-06-22T07:53:32;9.10;;;3.20;;
14048;SDS011;7099;53.922;10.728;2023-06-22T07:57:38;6.23;;;2.63;;
14048;SDS011;7099;53.922;10.728;2023-06-22T08:01:43;8.83;;;2.60;;
14048;SDS011;7099;53.922;10.728;2023-06-22T08:05:49;5.53;;;2.80;;
14048;SDS011;7099;53.922;10.728;2023-06-22T08:09:55;7.00;;;2.60;;
14048;SDS011;7099;53.922;10.728;2023-06-22T08:14:00;10.90;;;2.70;;
14048;SDS011;7099;53.922;10.728;2023-06-22T08:18:05;5.20;;;2.83;;
14048;SDS011;7099;53.922;10.728;2023-06-22T08:22:11;3.43;;;2.40;;
14048;SDS011;7099;53.922;10.728;2023-06-22T08:26:17;3.53;;;2.30;;
14048;SDS011;7099;53.922;10.728;2023-06-22T08:30:22;4.40;;;2.50;;
14048;SDS011;7099;53.922;10.728;2023-06-22T08:34:28;10.03;;;2.23;;
14048;SDS011;7099;53.922;10.728;2023-06-22T08:38:33;3.93;;;2.47;;
14048;SDS011;7099;53.922;10.728;2023-06-22T08:42:42;5.93;;;2.50;;
14048;SDS011;7099;53.922;10.728;2023-06-22T08:46:47;4.77;;;2.30;;
14048;SDS011;7099;53.922;10.728;2023-06-22T08:50:56;4.83;;;2.40;;
14048;SDS011;7099;53.922;10.728;2023-06-22T08:55:01;3.97;;;2.73;;
14048;SDS011;7099;53.922;10.728;2023-06-22T08:59:06;3.53;;;2.90;;
14048;SDS011;7099;53.922;10.728;2023-06-22T09:03:12;5.73;;;2.47;;
14048;SDS011;7099;53.922;10.728;2023-06-22T09:07:18;3.70;;;2.50;;
14048;SDS011;7099;53.922;10.728;2023-06-22T09:11:27;5.73;;;2.80;;
14048;SDS011;7099;53.922;10.728;2023-06-22T09:15:32;5.40;;;2.50;;
14048;SDS011;7099;53.922;10.728;2023-06-22T09:19:48;2.80;;;2.20;;
14048;SDS011;7099;53.922;10.728;2023-06-22T09:23:54;3.00;;;2.10;;
14048;SDS011;7099;53.922;10.728;2023-06-22T09:27:59;3.93;;;2.10;;
14048;SDS011;7099;53.922;10.728;2023-06-22T09:32:05;2.80;;;1.83;;
14048;SDS011;7099;53.922;10.728;2023-06-22T09:36:11;3.23;;;1.90;;
14048;SDS011;7099;53.922;10.728;2023-06-22T09:40:16;3.47;;;2.30;;
14048;SDS011;7099;53.922;10.728;2023-06-22T09:44:22;3.53;;;2.17;;
14048;SDS011;7099;53.922;10.728;2023-06-22T09:48:28;6.00;;;2.30;;
14048;SDS011;7099;53.922;10.728;2023-06-22T09:52:37;3.67;;;2.20;;
14048;SDS011;7099;53.922;10.728;2023-06-22T09:56:45;9.17;;;2.30;;
14048;SDS011;7099;53.922;10.728;2023-06-22T10:00:51;3.07;;;2.10;;
14048;SDS011;7099;53.922;10.728;2023-06-22T10:04:57;4.23;;;2.23;;
14048;SDS011;7099;53.922;10.728;2023-06-22T10:09:03;2.77;;;2.17;;
14048;SDS011;7099;53.922;10.728;2023-06-22T10:13:09;1.77;;;1.63;;
14048;SDS011;7099;53.922;10.728;2023-06-22T10:17:16;3.30;;;1.80;;
14048;SDS011;7099;53.922;10.728;2023-06-22T10:21:21;7.40;;;1.87;;
14048;SDS011;7099;53.922;10.728;2023-06-22T10:25:27;3.90;;;2.07;;
14048;SDS011;7099;53.922;10.728;2023-06-22T10:29:33;2.50;;;1.70;;
14048;SDS011;7099;53.922;10.728;2023-06-22T10:33:38;2.83;;;1.70;;
14048;SDS011;7099;53.922;10.728;2023-06-22T10:37:46;2.97;;;2.03;;
14048;SDS011;7099;53.922;10.728;2023-06-22T10:41:53;4.50;;;1.80;;
14048;SDS011;7099;53.922;10.728;2023-06-22T10:45:58;3.40;;;1.93;;
14048;SDS011;7099;53.922;10.728;2023-06-22T10:50:04;2.50;;;1.93;;
14048;SDS011;7099;53.922;10.728;2023-06-22T10:54:10;3.23;;;1.90;;
14048;SDS011;7099;53.922;10.728;2023-06-22T10:58:18;3.30;;;2.10;;
14048;SDS011;7099;53.922;10.728;2023-06-22T11:02:24;3.50;;;1.70;;
14048;SDS011;7099;53.922;10.728;2023-06-22T11:06:29;3.03;;;1.90;;
14048;SDS011;7099;53.922;10.728;2023-06-22T11:10:35;2.10;;;1.70;;
14048;SDS011;7099;53.922;10.728;2023-06-22T11:14:41;2.57;;;1.57;;
14048;SDS011;7099;53.922;10.728;2023-06-22T11:18:46;1.97;;;1.73;;
14048;SDS011;7099;53.922;10.728;2023-06-22T11:22:51;6.33;;;1.90;;
14048;SDS011;7099;53.922;10.728;2023-06-22T11:26:57;7.13;;;1.97;;
14048;SDS011;7099;53.922;10.728;2023-06-22T11:31:04;3.63;;;2.17;;
14048;SDS011;7099;53.922;10.728;2023-06-22T11:35:29;4.30;;;2.13;;
14048;SDS011;7099;53.922;10.728;2023-06-22T11:39:34;6.30;;;2.40;;
14048;SDS011;7099;53.922;10.728;2023-06-22T11:43:51;2.40;;;1.80;;
14048;SDS011;7099;53.922;10.728;2023-06-22T11:47:57;1.93;;;1.60;;
14048;SDS011;7099;53.922;10.728;2023-06-22T11:52:02;1.97;;;1.73;;
14048;SDS011;7099;53.922;10.728;2023-06-22T11:56:08;2.83;;;1.83;;
14048;SDS011;7099;53.922;10.728;2023-06-22T12:00:14;2.90;;;1.97;;
14048;SDS011;7099;53.922;10.728;2023-06-22T12:04:22;2.47;;;1.80;;
14048;SDS011;7099;53.922;10.728;2023-06-22T12:08:28;2.30;;;1.90;;
14048;SDS011;7099;53.922;10.728;2023-06-22T12:12:33;3.30;;;1.87;;
14048;SDS011;7099;53.922;10.728;2023-06-22T12:16:39;3.30;;;1.97;;
14048;SDS011;7099;53.922;10.728;2023-06-22T12:20:44;3.00;;;1.80;;
14048;SDS011;7099;53.922;10.728;2023-06-22T12:24:49;2.40;;;1.80;;
14048;SDS011;7099;53.922;10.728;2023-06-22T12:28:55;2.40;;;1.90;;
14048;SDS011;7099;53.922;10.728;2023-06-22T12:33:00;2.37;;;2.03;;
14048;SDS011;7099;53.922;10.728;2023-06-22T12:37:06;4.87;;;2.10;;
14048;SDS011;7099;53.922;10.728;2023-06-22T12:41:11;2.80;;;2.00;;
14048;SDS011;7099;53.922;10.728;2023-06-22T12:45:17;2.50;;;1.70;;
14048;SDS011;7099;53.922;10.728;2023-06-22T12:49:23;4.60;;;1.80;;
14048;SDS011;7099;53.922;10.728;2023-06-22T12:53:29;3.60;;;1.90;;
14048;SDS011;7099;53.922;10.728;2023-06-22T12:57:34;3.20;;;2.00;;
14048;SDS011;7099;53.922;10.728;2023-06-22T13:01:41;2.90;;;2.07;;
14048;SDS011;7099;53.922;10.728;2023-06-22T13:05:49;6.53;;;2.03;;
14048;SDS011;7099;53.922;10.728;2023-06-22T13:09:57;3.83;;;1.80;;
14048;SDS011;7099;53.922;10.728;2023-06-22T13:14:02;2.73;;;1.93;;
14048;SDS011;7099;53.922;10.728;2023-06-22T13:18:10;3.07;;;1.83;;
14048;SDS011;7099;53.922;10.728;2023-06-22T13:22:29;2.13;;;1.80;;
14048;SDS011;7099;53.922;10.728;2023-06-22T13:26:37;2.70;;;1.63;;
14048;SDS011;7099;53.922;10.728;2023-06-22T13:30:43;2.30;;;1.73;;
14048;SDS011;7099;53.922;10.728;2023-06-22T13:34:51;4.67;;;1.73;;
14048;SDS011;7099;53.922;10.728;2023-06-22T13:38:58;4.07;;;1.80;;
14048;SDS011;7099;53.922;10.728;2023-06-22T13:43:04;1.90;;;1.70;;
14048;SDS011;7099;53.922;10.728;2023-06-22T13:47:10;2.43;;;1.70;;
14048;SDS011;7099;53.922;10.728;2023-06-22T13:51:15;1.53;;;1.33;;
14048;SDS011;7099;53.922;10.728;2023-06-22T13:55:21;2.40;;;2.00;;
14048;SDS011;7099;53.922;10.728;2023-06-22T13:59:28;2.27;;;1.70;;
14048;SDS011;7099;53.922;10.728;2023-06-22T14:03:42;2.87;;;1.80;;
14048;SDS011;7099;53.922;10.728;2023-06-22T14:07:50;2.67;;;1.70;;
14048;SDS011;7099;53.922;10.728;2023-06-22T14:11:55;6.40;;;2.00;;
14048;SDS011;7099;53.922;10.728;2023-06-22T14:16:01;5.30;;;2.20;;
14048;SDS011;7099;53.922;10.728;2023-06-22T14:20:07;4.40;;;2.10;;
14048;SDS011;7099;53.922;10.728;2023-06-22T14:24:14;3.00;;;1.63;;
14048;SDS011;7099;53.922;10.728;2023-06-22T14:28:19;2.60;;;1.73;;
14048;SDS011;7099;53.922;10.728;2023-06-22T14:32:25;2.50;;;1.67;;
14048;SDS011;7099;53.922;10.728;2023-06-22T14:36:34;2.80;;;1.63;;
14048;SDS011;7099;53.922;10.728;2023-06-22T14:40:40;2.77;;;1.70;;
14048;SDS011;7099;53.922;10.728;2023-06-22T14:45:14;2.93;;;1.70;;
14048;SDS011;7099;53.922;10.728;2023-06-22T14:49:20;3.90;;;1.80;;
14048;SDS011;7099;53.922;10.728;2023-06-22T14:53:26;8.23;;;1.77;;
14048;SDS011;7099;53.922;10.728;2023-06-22T14:57:32;6.20;;;1.60;;
14048;SDS011;7099;53.922;10.728;2023-06-22T15:01:37;2.23;;;1.40;;
14048;SDS011;7099;53.922;10.728;2023-06-22T15:05:45;3.30;;;1.93;;
14048;SDS011;7099;53.922;10.728;2023-06-22T15:09:51;2.40;;;1.63;;
14048;SDS011;7099;53.922;10.728;2023-06-22T15:13:58;3.37;;;1.50;;
14048;SDS011;7099;53.922;10.728;2023-06-22T15:18:05;2.70;;;1.70;;
14048;SDS011;7099;53.922;10.728;2023-06-22T15:22:10;1.90;;;1.70;;
14048;SDS011;7099;53.922;10.728;2023-06-22T15:26:16;2.87;;;1.40;;
14048;SDS011;7099;53.922;10.728;2023-06-22T15:30:22;2.00;;;1.50;;
14048;SDS011;7099;53.922;10.728;2023-06-22T15:34:28;2.57;;;1.57;;
14048;SDS011;7099;53.922;10.728;2023-06-22T15:38:33;2.47;;;1.63;;
14048;SDS011;7099;53.922;10.728;2023-06-22T15:42:39;2.53;;;1.57;;
14048;SDS011;7099;53.922;10.728;2023-06-22T15:46:44;6.13;;;1.70;;
14048;SDS011;7099;53.922;10.728;2023-06-22T15:50:50;1.77;;;1.40;;
14048;SDS011;7099;53.922;10.728;2023-06-22T15:54:55;3.40;;;1.60;;
14048;SDS011;7099;53.922;10.728;2023-06-22T15:59:02;2.77;;;1.90;;
14048;SDS011;7099;53.922;10.728;2023-06-22T16:03:08;2.33;;;1.87;;
14048;SDS011;7099;53.922;10.728;2023-06-22T16:07:14;4.00;;;2.00;;
14048;SDS011;7099;53.922;10.728;2023-06-22T16:11:19;4.53;;;2.10;;
14048;SDS011;7099;53.922;10.728;2023-06-22T16:15:25;5.70;;;2.30;;
14048;SDS011;7099;53.922;10.728;2023-06-22T16:19:30;6.53;;;2.23;;
14048;SDS011;7099;53.922;10.728;2023-06-22T16:23:36;6.03;;;2.50;;
14048;SDS011;7099;53.922;10.728;2023-06-22T16:27:41;4.80;;;2.00;;
14048;SDS011;7099;53.922;10.728;2023-06-22T16:31:49;2.00;;;1.67;;
14048;SDS011;7099;53.922;10.728;2023-06-22T16:35:55;4.70;;;2.00;;
14048;SDS011;7099;53.922;10.728;2023-06-22T16:40:00;4.77;;;2.10;;
14048;SDS011;7099;53.922;10.728;2023-06-22T16:44:06;20.73;;;1.87;;
14048;SDS011;7099;53.922;10.728;2023-06-22T16:48:12;4.73;;;2.17;;
14048;SDS011;7099;53.922;10.728;2023-06-22T16:52:17;2.23;;;1.63;;
14048;SDS011;7099;53.922;10.728;2023-06-22T16:56:24;2.60;;;1.50;;
14048;SDS011;7099;53.922;10.728;2023-06-22T17:00:31;1.83;;;1.57;;
14048;SDS011;7099;53.922;10.728;2023-06-22T17:04:36;2.70;;;1.30;;
14048;SDS011;7099;53.922;10.728;2023-06-22T17:08:43;10.03;;;1.80;;
14048;SDS011;7099;53.922;10.728;2023-06-22T17:12:49;5.47;;;1.90;;
14048;SDS011;7099;53.922;10.728;2023-06-22T17:16:58;4.20;;;1.87;;
14048;SDS011;7099;53.922;10.728;2023-06-22T17:21:05;4.27;;;1.77;;
14048;SDS011;7099;53.922;10.728;2023-06-22T17:25:11;2.83;;;1.80;;
14048;SDS011;7099;53.922;10.728;2023-06-22T17:29:19;2.70;;;1.63;;
14048;SDS011;7099;53.922;10.728;2023-06-22T17:33:25;1.53;;;1.40;;
14048;SDS011;7099;53.922;10.728;2023-06-22T17:37:45;3.30;;;2.03;;
14048;SDS011;7099;53.922;10.728;2023-06-22T17:41:55;3.40;;;1.63;;
14048;SDS011;7099;53.922;10.728;2023-06-22T17:46:01;1.80;;;1.40;;
14048;SDS011;7099;53.922;10.728;2023-06-22T17:50:07;5.10;;;1.60;;
14048;SDS011;7099;53.922;10.728;2023-06-22T17:54:14;1.90;;;1.60;;
14048;SDS011;7099;53.922;10.728;2023-06-22T17:58:19;3.33;;;1.47;;
14048;SDS011;7099;53.922;10.728;2023-06-22T18:02:25;1.70;;;1.50;;
14048;SDS011;7099;53.922;10.728;2023-06-22T18:06:36;2.50;;;1.30;;
14048;SDS011;7099;53.922;10.728;2023-06-22T18:10:46;1.97;;;1.60;;
14048;SDS011;7099;53.922;10.728;2023-06-22T18:14:52;2.23;;;1.33;;
14048;SDS011;7099;53.922;10.728;2023-06-22T18:18:59;2.60;;;1.50;;
14048;SDS011;7099;53.922;10.728;2023-06-22T18:23:05;2.60;;;1.50;;
14048;SDS011;7099;53.922;10.728;2023-06-22T18:27:15;2.33;;;1.40;;
14048;SDS011;7099;53.922;10.728;2023-06-22T18:31:22;2.77;;;1.57;;
14048;SDS011;7099;53.922;10.728;2023-06-22T18:35:29;3.00;;;1.80;;
14048;SDS011;7099;53.922;10.728;2023-06-22T18:39:39;5.87;;;1.53;;
14048;SDS011;7099;53.922;10.728;2023-06-22T18:43:52;2.80;;;1.60;;
14048;SDS011;7099;53.922;10.728;2023-06-22T18:48:04;1.40;;;1.30;;
14048;SDS011;7099;53.922;10.728;2023-06-22T18:52:14;1.73;;;1.37;;
14048;SDS011;7099;53.922;10.728;2023-06-22T18:56:21;1.87;;;1.40;;
14048;SDS011;7099;53.922;10.728;2023-06-22T19:00:30;2.30;;;1.40;;
14048;SDS011;7099;53.922;10.728;2023-06-22T19:04:36;1.80;;;1.47;;
14048;SDS011;7099;53.922;10.728;2023-06-22T19:13:19;1.60;;;1.33;;
14048;SDS011;7099;53.922;10.728;2023-06-22T19:17:33;4.13;;;1.30;;
14048;SDS011;7099;53.922;10.728;2023-06-22T19:21:39;1.53;;;1.23;;
14048;SDS011;7099;53.922;10.728;2023-06-22T19:25:44;3.37;;;1.60;;
14048;SDS011;7099;53.922;10.728;2023-06-22T19:29:52;2.43;;;1.30;;
14048;SDS011;7099;53.922;10.728;2023-06-22T19:33:59;2.27;;;1.40;;
14048;SDS011;7099;53.922;10.728;2023-06-22T19:38:09;1.70;;;1.30;;
14048;SDS011;7099;53.922;10.728;2023-06-22T19:42:15;2.10;;;1.70;;
14048;SDS011;7099;53.922;10.728;2023-06-22T19:46:30;11.07;;;1.87;;
14048;SDS011;7099;53.922;10.728;2023-06-22T19:50:38;2.70;;;1.60;;
14048;SDS011;7099;53.922;10.728;2023-06-22T19:54:47;2.67;;;1.73;;
14048;SDS011;7099;53.922;10.728;2023-06-22T19:58:53;6.93;;;1.83;;
14048;SDS011;7099;53.922;10.728;2023-06-22T20:02:58;2.30;;;1.70;;
14048;SDS011;7099;53.922;10.728;2023-06-22T20:07:04;3.00;;;2.00;;
14048;SDS011;7099;53.922;10.728;2023-06-22T20:11:12;3.60;;;2.20;;
14048;SDS011;7099;53.922;10.728;2023-06-22T20:19:37;3.50;;;2.00;;
14048;SDS011;7099;53.922;10.728;2023-06-22T20:23:47;2.73;;;1.80;;
14048;SDS011;7099;53.922;10.728;2023-06-22T20:27:52;2.60;;;1.90;;
14048;SDS011;7099;53.922;10.728;2023-06-22T20:32:03;4.80;;;2.33;;
14048;SDS011;7099;53.922;10.728;2023-06-22T20:36:12;4.13;;;2.20;;
14048;SDS011;7099;53.922;10.728;2023-06-22T20:40:21;3.30;;;2.00;;
14048;SDS011;7099;53.922;10.728;2023-06-22T20:44:34;3.67;;;2.00;;
14048;SDS011;7099;53.922;10.728;2023-06-22T20:48:40;2.90;;;1.80;;
14048;SDS011;7099;53.922;10.728;2023-06-22T20:52:45;2.10;;;1.90;;
14048;SDS011;7099;53.922;10.728;2023-06-22T20:56:51;2.80;;;1.97;;
14048;SDS011;7099;53.922;10.728;2023-06-22T21:00:57;3.53;;;2.10;;
14048;SDS011;7099;53.922;10.728;2023-06-22T21:05:06;4.83;;;2.40;;
14048;SDS011;7099;53.922;10.728;2023-06-22T21:09:12;2.67;;;2.10;;
14048;SDS011;7099;53.922;10.728;2023-06-22T21:13:17;4.00;;;2.37;;
14048;SDS011;7099;53.922;10.728;2023-06-22T21:17:23;5.53;;;2.40;;
14048;SDS011;7099;53.922;10.728;2023-06-22T21:21:30;4.07;;;2.37;;
14048;SDS011;7099;53.922;10.728;2023-06-22T21:25:36;5.67;;;2.50;;
14048;SDS011;7099;53.922;10.728;2023-06-22T21:29:41;6.97;;;2.63;;
14048;SDS011;7099;53.922;10.728;2023-06-22T21:33:47;3.03;;;2.50;;
14048;SDS011;7099;53.922;10.728;2023-06-22T21:37:53;4.27;;;2.20;;
14048;SDS011;7099;53.922;10.728;2023-06-22T21:41:59;5.87;;;2.80;;
14048;SDS011;7099;53.922;10.728;2023-06-22T21:46:04;5.63;;;2.93;;
14048;SDS011;7099;53.922;10.728;2023-06-22T21:50:10;6.00;;;3.30;;
14048;SDS011;7099;53.922;10.728;2023-06-22T21:54:15;3.67;;;2.87;;
14048;SDS011;7099;53.922;10.728;2023-06-22T21:58:21;3.77;;;2.70;;
14048;SDS011;7099;53.922;10.728;2023-06-22T22:02:30;3.83;;;2.93;;
14048;SDS011;7099;53.922;10.728;2023-06-22T22:06:36;4.83;;;2.67;;
14048;SDS011;7099;53.922;10.728;2023-06-22T22:10:42;4.50;;;3.00;;
14048;SDS011;7099;53.922;10.728;2023-06-22T22:14:47;6.90;;;3.00;;
14048;SDS011;7099;53.922;10.728;2023-06-22T22:18:53;5.53;;;3.23;;
14048;SDS011;7099;53.922;10.728;2023-06-22T22:22:58;6.40;;;3.00;;
14048;SDS011;7099;53.922;10.728;2023-06-22T22:27:04;4.00;;;2.97;;
14048;SDS011;7099;53.922;10.728;2023-06-22T22:31:09;9.37;;;3.27;;
14048;SDS011;7099;53.922;10.728;2023-06-22T22:35:15;5.70;;;2.83;;
14048;SDS011;7099;53.922;10.728;2023-06-22T22:39:30;5.33;;;2.93;;
14048;SDS011;7099;53.922;10.728;2023-06-22T22:43:41;6.03;;;2.60;;
14048;SDS011;7099;53.922;10.728;2023-06-22T22:47:46;5.00;;;2.80;;
14048;SDS011;7099;53.922;10.728;2023-06-22T22:51:52;6.87;;;2.93;;
14048;SDS011;7099;53.922;10.728;2023-06-22T22:55:57;5.40;;;3.60;;
14048;SDS011;7099;53.922;10.728;2023-06-22T23:00:03;4.37;;;3.47;;
14048;SDS011;7099;53.922;10.728;2023-06-22T23:04:16;3.50;;;3.10;;
14048;SDS011;7099;53.922;10.728;2023-06-22T23:08:23;6.07;;;3.03;;
14048;SDS011;7099;53.922;10.728;2023-06-22T23:12:28;3.93;;;3.00;;
14048;SDS011;7099;53.922;10.728;2023-06-22T23:16:34;4.00;;;2.83;;
14048;SDS011;7099;53.922;10.728;2023-06-22T23:20:39;8.30;;;2.60;;
14048;SDS011;7099;53.922;10.728;2023-06-22T23:24:45;2.53;;;1.90;;
14048;SDS011;7099;53.922;10.728;2023-06-22T23:28:51;2.70;;;2.10;;
14048;SDS011;7099;53.922;10.728;2023-06-22T23:32:56;3.40;;;2.10;;
14048;SDS011;7099;53.922;10.728;2023-06-22T23:37:02;3.13;;;2.20;;
14048;SDS011;7099;53.922;10.728;2023-06-22T23:41:08;3.37;;;2.47;;
14048;SDS011;7099;53.922;10.728;2023-06-22T23:45:15;4.37;;;2.40;;
14048;SDS011;7099;53.922;10.728;2023-06-22T23:49:24;3.73;;;2.23;;
14048;SDS011;7099;53.922;10.728;2023-06-22T23:53:30;2.90;;;2.33;;
14048;SDS011;7099;53.922;10.728;2023-06-22T23:57:35;4.07;;;2.50;;
